sensor_id;sensor_type;location;lat;lon;timestamp;temperature;humidity
3023;DHT22;1521;53.584;9.938;2023-03-12T00:01:10;0.70;1.00
3023;DHT22;1521;53.584;9.938;2023-03-12T00:03:36;0.70;1.00
3023;DHT22;1521;53.584;9.938;2023-03-12T00:06:02;0.70;1.00
3023;DHT22;1521;53.584;9.938;2023-03-12T00:08:28;0.70;1.00
3023;DHT22;1521;53.584;9.938;2023-03-12T00:10:54;0.80;1.00
3023;DHT22;1521;53.584;9.938;2023-03-12T00:13:19;0.80;1.00
3023;DHT22;1521;53.584;9.938;2023-03-12T00:15:45;0.90;1.00
3023;DHT22;1521;53.584;9.938;2023-03-12T00:18:10;0.90;1.00
3023;DHT22;1521;53.584;9.938;2023-03-12T00:20:36;0.90;1.00
3023;DHT22;1521;53.584;9.938;2023-03-12T00:23:01;0.90;1.00
3023;DHT22;1521;53.584;9.938;2023-03-12T00:25:27;0.90;1.00
3023;DHT22;1521;53.584;9.938;2023-03-12T00:27:52;0.90;1.00
3023;DHT22;1521;53.584;9.938;2023-03-12T00:30:18;0.90;1.00
3023;DHT22;1521;53.584;9.938;2023-03-12T00:32:44;1.00;1.00
3023;DHT22;1521;53.584;9.938;2023-03-12T00:35:09;0.90;1.00
3023;DHT22;1521;53.584;9.938;2023-03-12T00:37:37;0.90;1.00
3023;DHT22;1521;53.584;9.938;2023-03-12T00:40:03;0.90;1.00
3023;DHT22;1521;53.584;9.938;2023-03-12T00:42:30;0.90;1.00
3023;DHT22;1521;53.584;9.938;2023-03-12T00:44:56;0.90;1.00
3023;DHT22;1521;53.584;9.938;2023-03-12T00:47:21;0.80;1.00
3023;DHT22;1521;53.584;9.938;2023-03-12T00:49:47;0.70;1.00
3023;DHT22;1521;53.584;9.938;2023-03-12T00:52:12;0.70;1.00
3023;DHT22;1521;53.584;9.938;2023-03-12T00:54:38;0.70;1.00
3023;DHT22;1521;53.584;9.938;2023-03-12T00:57:05;0.60;1.00
3023;DHT22;1521;53.584;9.938;2023-03-12T00:59:31;0.60;1.00
3023;DHT22;1521;53.584;9.938;2023-03-12T01:01:56;0.60;1.00
3023;DHT22;1521;53.584;9.938;2023-03-12T01:04:22;0.60;6.40
3023;DHT22;1521;53.584;9.938;2023-03-12T01:06:48;0.70;14.40
3023;DHT22;1521;53.584;9.938;2023-03-12T01:09:13;0.70;21.10
3023;DHT22;1521;53.584;9.938;2023-03-12T01:11:39;0.70;28.60
3023;DHT22;1521;53.584;9.938;2023-03-12T01:14:06;0.70;36.60
3023;DHT22;1521;53.584;9.938;2023-03-12T01:16:32;0.70;39.00
3023;DHT22;1521;53.584;9.938;2023-03-12T01:18:59;0.70;39.70
3023;DHT22;1521;53.584;9.938;2023-03-12T01:21:25;0.60;39.70
3023;DHT22;1521;53.584;9.938;2023-03-12T01:23:52;0.70;40.20
3023;DHT22;1521;53.584;9.938;2023-03-12T01:26:18;0.60;43.60
3023;DHT22;1521;53.584;9.938;2023-03-12T01:28:44;0.60;50.30
3023;DHT22;1521;53.584;9.938;2023-03-12T01:31:12;0.60;51.80
3023;DHT22;1521;53.584;9.938;2023-03-12T01:33:38;0.60;52.60
3023;DHT22;1521;53.584;9.938;2023-03-12T01:36:05;0.50;53.00
3023;DHT22;1521;53.584;9.938;2023-03-12T01:38:30;0.50;51.10
3023;DHT22;1521;53.584;9.938;2023-03-12T01:40:56;0.50;52.40
3023;DHT22;1521;53.584;9.938;2023-03-12T01:48:44;0.50;79.50
3023;DHT22;1521;53.584;9.938;2023-03-12T01:51:14;0.50;77.20
3023;DHT22;1521;53.584;9.938;2023-03-12T01:53:43;0.40;74.40
3023;DHT22;1521;53.584;9.938;2023-03-12T01:56:09;0.40;76.70
3023;DHT22;1521;53.584;9.938;2023-03-12T01:58:37;0.40;90.50
3023;DHT22;1521;53.584;9.938;2023-03-12T02:01:05;0.40;95.90
3023;DHT22;1521;53.584;9.938;2023-03-12T02:03:31;0.40;98.90
3023;DHT22;1521;53.584;9.938;2023-03-12T02:06:02;0.40;98.70
3023;DHT22;1521;53.584;9.938;2023-03-12T02:08:33;0.30;95.20
3023;DHT22;1521;53.584;9.938;2023-03-12T02:11:00;0.30;96.50
3023;DHT22;1521;53.584;9.938;2023-03-12T02:13:25;0.30;99.90
3023;DHT22;1521;53.584;9.938;2023-03-12T02:15:52;0.40;99.90
3023;DHT22;1521;53.584;9.938;2023-03-12T02:18:18;0.40;99.90
3023;DHT22;1521;53.584;9.938;2023-03-12T02:21:25;0.50;99.90
3023;DHT22;1521;53.584;9.938;2023-03-12T02:26:32;0.60;99.90
3023;DHT22;1521;53.584;9.938;2023-03-12T02:28:59;0.60;99.90
3023;DHT22;1521;53.584;9.938;2023-03-12T02:31:30;0.60;99.90
3023;DHT22;1521;53.584;9.938;2023-03-12T02:33:57;0.70;99.90
3023;DHT22;1521;53.584;9.938;2023-03-12T02:36:25;0.70;99.90
3023;DHT22;1521;53.584;9.938;2023-03-12T02:38:53;0.70;99.90
3023;DHT22;1521;53.584;9.938;2023-03-12T02:41:43;0.70;99.90
3023;DHT22;1521;53.584;9.938;2023-03-12T02:44:18;0.80;99.90
3023;DHT22;1521;53.584;9.938;2023-03-12T02:46:48;0.90;99.90
3023;DHT22;1521;53.584;9.938;2023-03-12T02:49:15;0.90;99.90
3023;DHT22;1521;53.584;9.938;2023-03-12T02:51:43;0.80;99.90
3023;DHT22;1521;53.584;9.938;2023-03-12T02:54:10;0.80;99.90
3023;DHT22;1521;53.584;9.938;2023-03-12T02:56:36;0.70;92.30
3023;DHT22;1521;53.584;9.938;2023-03-12T02:59:02;0.60;70.10
3023;DHT22;1521;53.584;9.938;2023-03-12T03:01:28;0.50;53.90
3023;DHT22;1521;53.584;9.938;2023-03-12T03:03:54;0.50;53.50
3023;DHT22;1521;53.584;9.938;2023-03-12T03:06:20;0.50;55.00
3023;DHT22;1521;53.584;9.938;2023-03-12T03:08:45;0.50;52.90
3023;DHT22;1521;53.584;9.938;2023-03-12T03:11:11;0.40;40.30
3023;DHT22;1521;53.584;9.938;2023-03-12T03:13:37;0.40;32.50
3023;DHT22;1521;53.584;9.938;2023-03-12T03:16:03;0.30;33.60
3023;DHT22;1521;53.584;9.938;2023-03-12T03:18:30;0.30;33.20
3023;DHT22;1521;53.584;9.938;2023-03-12T03:21:06;0.20;31.90
3023;DHT22;1521;53.584;9.938;2023-03-12T03:23:32;0.30;44.50
3023;DHT22;1521;53.584;9.938;2023-03-12T03:25:58;0.20;45.60
3023;DHT22;1521;53.584;9.938;2023-03-12T03:28:26;0.20;48.50
3023;DHT22;1521;53.584;9.938;2023-03-12T03:30:57;0.20;54.30
3023;DHT22;1521;53.584;9.938;2023-03-12T03:33:25;0.20;58.90
3023;DHT22;1521;53.584;9.938;2023-03-12T03:35:51;0.10;63.80
3023;DHT22;1521;53.584;9.938;2023-03-12T03:38:16;0.10;68.50
3023;DHT22;1521;53.584;9.938;2023-03-12T03:40:42;0.20;80.70
3023;DHT22;1521;53.584;9.938;2023-03-12T03:43:08;0.20;85.80
3023;DHT22;1521;53.584;9.938;2023-03-12T03:45:33;0.20;76.40
3023;DHT22;1521;53.584;9.938;2023-03-12T03:47:59;0.10;72.10
3023;DHT22;1521;53.584;9.938;2023-03-12T03:50:25;0.10;67.60
3023;DHT22;1521;53.584;9.938;2023-03-12T03:52:50;0.20;74.80
3023;DHT22;1521;53.584;9.938;2023-03-12T03:55:16;0.20;83.80
3023;DHT22;1521;53.584;9.938;2023-03-12T03:57:42;0.20;85.60
3023;DHT22;1521;53.584;9.938;2023-03-12T04:00:08;0.30;86.70
3023;DHT22;1521;53.584;9.938;2023-03-12T04:02:38;0.20;76.60
3023;DHT22;1521;53.584;9.938;2023-03-12T04:05:04;0.20;75.30
3023;DHT22;1521;53.584;9.938;2023-03-12T04:07:30;0.20;68.10
3023;DHT22;1521;53.584;9.938;2023-03-12T04:09:55;0.20;56.60
3023;DHT22;1521;53.584;9.938;2023-03-12T04:12:22;0.10;47.90
3023;DHT22;1521;53.584;9.938;2023-03-12T04:14:51;0.00;44.70
3023;DHT22;1521;53.584;9.938;2023-03-12T04:17:17;0.00;39.30
3023;DHT22;1521;53.584;9.938;2023-03-12T04:19:43;-0.10;36.00
3023;DHT22;1521;53.584;9.938;2023-03-12T04:22:09;-0.10;35.50
3023;DHT22;1521;53.584;9.938;2023-03-12T04:24:34;-0.20;41.50
3023;DHT22;1521;53.584;9.938;2023-03-12T04:27:00;-0.20;45.30
3023;DHT22;1521;53.584;9.938;2023-03-12T04:29:26;-0.20;51.20
3023;DHT22;1521;53.584;9.938;2023-03-12T04:31:51;-0.20;56.80
3023;DHT22;1521;53.584;9.938;2023-03-12T04:34:17;-0.20;61.70
3023;DHT22;1521;53.584;9.938;2023-03-12T04:36:43;-0.10;64.00
3023;DHT22;1521;53.584;9.938;2023-03-12T04:39:09;-0.10;66.80
3023;DHT22;1521;53.584;9.938;2023-03-12T04:41:35;-0.10;68.90
3023;DHT22;1521;53.584;9.938;2023-03-12T04:44:01;-0.10;58.80
3023;DHT22;1521;53.584;9.938;2023-03-12T04:46:27;-0.10;52.30
3023;DHT22;1521;53.584;9.938;2023-03-12T04:48:53;-0.10;44.20
3023;DHT22;1521;53.584;9.938;2023-03-12T04:51:19;-0.20;37.00
3023;DHT22;1521;53.584;9.938;2023-03-12T04:53:44;-0.20;30.30
3023;DHT22;1521;53.584;9.938;2023-03-12T04:56:10;-0.30;20.70
3023;DHT22;1521;53.584;9.938;2023-03-12T04:58:36;-0.30;18.90
3023;DHT22;1521;53.584;9.938;2023-03-12T05:01:02;-0.20;24.00
3023;DHT22;1521;53.584;9.938;2023-03-12T05:03:28;-0.20;26.70
3023;DHT22;1521;53.584;9.938;2023-03-12T05:05:53;-0.30;23.10
3023;DHT22;1521;53.584;9.938;2023-03-12T05:08:19;-0.30;25.30
3023;DHT22;1521;53.584;9.938;2023-03-12T05:10:44;-0.30;24.60
3023;DHT22;1521;53.584;9.938;2023-03-12T05:13:18;-0.30;25.80
3023;DHT22;1521;53.584;9.938;2023-03-12T05:15:45;-0.30;32.80
3023;DHT22;1521;53.584;9.938;2023-03-12T05:18:11;-0.30;38.40
3023;DHT22;1521;53.584;9.938;2023-03-12T05:20:37;-0.30;40.10
3023;DHT22;1521;53.584;9.938;2023-03-12T05:23:03;-0.20;45.60
3023;DHT22;1521;53.584;9.938;2023-03-12T05:25:28;-0.30;45.10
3023;DHT22;1521;53.584;9.938;2023-03-12T05:27:54;-0.20;44.90
3023;DHT22;1521;53.584;9.938;2023-03-12T05:30:20;-0.20;49.30
3023;DHT22;1521;53.584;9.938;2023-03-12T05:32:46;-0.10;46.20
3023;DHT22;1521;53.584;9.938;2023-03-12T05:35:12;-0.10;40.60
3023;DHT22;1521;53.584;9.938;2023-03-12T05:37:37;-0.10;31.20
3023;DHT22;1521;53.584;9.938;2023-03-12T05:40:04;-0.10;27.20
3023;DHT22;1521;53.584;9.938;2023-03-12T05:42:29;-0.20;20.10
3023;DHT22;1521;53.584;9.938;2023-03-12T05:44:55;-0.20;17.90
3023;DHT22;1521;53.584;9.938;2023-03-12T05:47:21;-0.20;19.80
3023;DHT22;1521;53.584;9.938;2023-03-12T05:49:47;-0.10;24.60
3023;DHT22;1521;53.584;9.938;2023-03-12T05:52:12;0.00;30.00
3023;DHT22;1521;53.584;9.938;2023-03-12T05:54:38;0.00;32.30
3023;DHT22;1521;53.584;9.938;2023-03-12T05:57:04;0.00;23.50
3023;DHT22;1521;53.584;9.938;2023-03-12T05:59:29;0.00;19.90
3023;DHT22;1521;53.584;9.938;2023-03-12T06:01:55;0.10;21.10
3023;DHT22;1521;53.584;9.938;2023-03-12T06:04:21;0.00;11.90
3023;DHT22;1521;53.584;9.938;2023-03-12T06:06:47;0.00;7.20
3023;DHT22;1521;53.584;9.938;2023-03-12T06:09:12;0.10;8.70
3023;DHT22;1521;53.584;9.938;2023-03-12T06:11:38;0.20;10.70
3023;DHT22;1521;53.584;9.938;2023-03-12T06:14:03;0.20;4.50
3023;DHT22;1521;53.584;9.938;2023-03-12T06:16:29;0.20;1.00
3023;DHT22;1521;53.584;9.938;2023-03-12T06:18:57;0.20;1.00
3023;DHT22;1521;53.584;9.938;2023-03-12T06:21:26;0.30;1.00
3023;DHT22;1521;53.584;9.938;2023-03-12T06:23:52;0.30;1.00
3023;DHT22;1521;53.584;9.938;2023-03-12T06:26:19;0.40;1.00
3023;DHT22;1521;53.584;9.938;2023-03-12T06:28:45;0.40;4.90
3023;DHT22;1521;53.584;9.938;2023-03-12T06:31:11;0.40;5.00
3023;DHT22;1521;53.584;9.938;2023-03-12T06:33:37;0.50;8.10
3023;DHT22;1521;53.584;9.938;2023-03-12T06:36:04;0.60;10.60
3023;DHT22;1521;53.584;9.938;2023-03-12T06:38:30;0.60;10.00
3023;DHT22;1521;53.584;9.938;2023-03-12T06:40:58;0.70;11.60
3023;DHT22;1521;53.584;9.938;2023-03-12T06:43:26;0.70;11.20
3023;DHT22;1521;53.584;9.938;2023-03-12T06:45:54;0.70;11.90
3023;DHT22;1521;53.584;9.938;2023-03-12T06:48:21;0.80;11.30
3023;DHT22;1521;53.584;9.938;2023-03-12T06:50:47;0.90;8.00
3023;DHT22;1521;53.584;9.938;2023-03-12T06:53:12;1.00;7.30
3023;DHT22;1521;53.584;9.938;2023-03-12T06:55:38;1.10;1.00
3023;DHT22;1521;53.584;9.938;2023-03-12T06:58:04;1.20;1.00
3023;DHT22;1521;53.584;9.938;2023-03-12T07:00:30;1.30;1.00
3023;DHT22;1521;53.584;9.938;2023-03-12T07:02:56;1.40;1.00
3023;DHT22;1521;53.584;9.938;2023-03-12T07:05:23;1.60;1.00
3023;DHT22;1521;53.584;9.938;2023-03-12T07:07:48;1.80;1.00
3023;DHT22;1521;53.584;9.938;2023-03-12T07:10:14;1.90;1.00
3023;DHT22;1521;53.584;9.938;2023-03-12T07:12:40;1.90;99.90
3023;DHT22;1521;53.584;9.938;2023-03-12T07:15:06;2.00;99.90
3023;DHT22;1521;53.584;9.938;2023-03-12T07:17:32;2.00;99.90
3023;DHT22;1521;53.584;9.938;2023-03-12T07:19:57;2.00;99.90
3023;DHT22;1521;53.584;9.938;2023-03-12T07:22:23;2.00;21.50
3023;DHT22;1521;53.584;9.938;2023-03-12T07:24:48;1.90;1.00
3023;DHT22;1521;53.584;9.938;2023-03-12T07:27:16;2.00;1.00
3023;DHT22;1521;53.584;9.938;2023-03-12T07:29:42;2.10;1.00
3023;DHT22;1521;53.584;9.938;2023-03-12T07:32:07;2.10;1.00
3023;DHT22;1521;53.584;9.938;2023-03-12T07:34:33;2.10;1.00
3023;DHT22;1521;53.584;9.938;2023-03-12T07:36:59;2.00;99.90
3023;DHT22;1521;53.584;9.938;2023-03-12T07:39:25;2.10;99.90
3023;DHT22;1521;53.584;9.938;2023-03-12T07:41:50;2.20;99.90
3023;DHT22;1521;53.584;9.938;2023-03-12T07:44:16;2.40;99.90
3023;DHT22;1521;53.584;9.938;2023-03-12T07:46:41;2.40;99.90
3023;DHT22;1521;53.584;9.938;2023-03-12T07:49:07;2.50;99.90
3023;DHT22;1521;53.584;9.938;2023-03-12T07:51:33;2.60;1.00
3023;DHT22;1521;53.584;9.938;2023-03-12T07:53:58;2.80;99.90
3023;DHT22;1521;53.584;9.938;2023-03-12T07:56:24;3.00;99.90
3023;DHT22;1521;53.584;9.938;2023-03-12T07:58:49;3.20;1.00
3023;DHT22;1521;53.584;9.938;2023-03-12T08:01:15;3.50;99.90
3023;DHT22;1521;53.584;9.938;2023-03-12T08:03:41;3.60;1.00
3023;DHT22;1521;53.584;9.938;2023-03-12T08:06:07;4.00;99.90
3023;DHT22;1521;53.584;9.938;2023-03-12T08:08:33;4.30;1.00
3023;DHT22;1521;53.584;9.938;2023-03-12T08:10:59;4.40;1.00
3023;DHT22;1521;53.584;9.938;2023-03-12T08:13:25;4.60;1.00
3023;DHT22;1521;53.584;9.938;2023-03-12T08:15:51;4.90;1.00
3023;DHT22;1521;53.584;9.938;2023-03-12T08:18:18;4.90;1.00
3023;DHT22;1521;53.584;9.938;2023-03-12T08:20:44;4.80;1.00
3023;DHT22;1521;53.584;9.938;2023-03-12T08:23:10;4.80;1.00
3023;DHT22;1521;53.584;9.938;2023-03-12T08:25:36;4.60;1.00
3023;DHT22;1521;53.584;9.938;2023-03-12T08:28:04;4.50;1.00
3023;DHT22;1521;53.584;9.938;2023-03-12T08:30:30;4.40;99.90
3023;DHT22;1521;53.584;9.938;2023-03-12T08:32:57;4.30;99.90
3023;DHT22;1521;53.584;9.938;2023-03-12T08:35:23;4.10;1.00
3023;DHT22;1521;53.584;9.938;2023-03-12T08:37:48;4.00;99.90
3023;DHT22;1521;53.584;9.938;2023-03-12T08:40:14;4.10;99.90
3023;DHT22;1521;53.584;9.938;2023-03-12T08:42:41;4.10;99.90
3023;DHT22;1521;53.584;9.938;2023-03-12T08:45:08;4.20;99.90
3023;DHT22;1521;53.584;9.938;2023-03-12T08:47:34;4.40;99.90
3023;DHT22;1521;53.584;9.938;2023-03-12T08:49:59;4.50;54.10
3023;DHT22;1521;53.584;9.938;2023-03-12T08:52:25;4.40;17.30
3023;DHT22;1521;53.584;9.938;2023-03-12T08:54:51;4.40;7.00
3023;DHT22;1521;53.584;9.938;2023-03-12T08:57:16;4.30;1.00
3023;DHT22;1521;53.584;9.938;2023-03-12T08:59:42;4.40;1.00
3023;DHT22;1521;53.584;9.938;2023-03-12T09:02:10;4.50;1.00
3023;DHT22;1521;53.584;9.938;2023-03-12T09:04:36;4.60;1.00
3023;DHT22;1521;53.584;9.938;2023-03-12T09:07:02;4.60;1.00
3023;DHT22;1521;53.584;9.938;2023-03-12T09:09:28;4.50;1.00
3023;DHT22;1521;53.584;9.938;2023-03-12T09:11:53;4.40;1.00
3023;DHT22;1521;53.584;9.938;2023-03-12T09:14:19;4.30;1.00
3023;DHT22;1521;53.584;9.938;2023-03-12T09:16:45;4.20;1.00
3023;DHT22;1521;53.584;9.938;2023-03-12T09:19:10;4.20;1.00
3023;DHT22;1521;53.584;9.938;2023-03-12T09:21:36;4.20;1.00
3023;DHT22;1521;53.584;9.938;2023-03-12T09:24:02;4.20;1.00
3023;DHT22;1521;53.584;9.938;2023-03-12T09:26:27;4.40;1.00
3023;DHT22;1521;53.584;9.938;2023-03-12T09:28:53;4.50;1.00
3023;DHT22;1521;53.584;9.938;2023-03-12T09:31:19;4.60;1.00
3023;DHT22;1521;53.584;9.938;2023-03-12T09:33:44;4.50;1.00
3023;DHT22;1521;53.584;9.938;2023-03-12T09:36:10;4.50;1.00
3023;DHT22;1521;53.584;9.938;2023-03-12T09:38:35;4.50;1.00
3023;DHT22;1521;53.584;9.938;2023-03-12T09:41:10;4.50;1.00
3023;DHT22;1521;53.584;9.938;2023-03-12T09:43:44;4.50;1.00
3023;DHT22;1521;53.584;9.938;2023-03-12T09:46:16;4.70;1.00
3023;DHT22;1521;53.584;9.938;2023-03-12T09:48:42;4.90;1.00
3023;DHT22;1521;53.584;9.938;2023-03-12T09:51:33;5.00;1.00
3023;DHT22;1521;53.584;9.938;2023-03-12T09:54:04;5.10;1.00
3023;DHT22;1521;53.584;9.938;2023-03-12T09:56:32;5.20;1.00
3023;DHT22;1521;53.584;9.938;2023-03-12T09:58:58;5.40;1.00
3023;DHT22;1521;53.584;9.938;2023-03-12T10:06:27;5.50;1.00
3023;DHT22;1521;53.584;9.938;2023-03-12T10:17:02;6.40;1.00
3023;DHT22;1521;53.584;9.938;2023-03-12T10:27:33;6.60;1.00
3023;DHT22;1521;53.584;9.938;2023-03-12T10:30:02;6.80;1.00
3023;DHT22;1521;53.584;9.938;2023-03-12T10:32:47;6.70;1.00
3023;DHT22;1521;53.584;9.938;2023-03-12T10:35:31;6.70;1.00
3023;DHT22;1521;53.584;9.938;2023-03-12T10:37:59;6.50;1.00
3023;DHT22;1521;53.584;9.938;2023-03-12T10:40:30;6.50;1.00
3023;DHT22;1521;53.584;9.938;2023-03-12T10:42:56;6.30;1.00
3023;DHT22;1521;53.584;9.938;2023-03-12T10:48:09;5.90;1.00
3023;DHT22;1521;53.584;9.938;2023-03-12T10:50:37;6.00;1.00
3023;DHT22;1521;53.584;9.938;2023-03-12T10:53:22;6.10;1.00
3023;DHT22;1521;53.584;9.938;2023-03-12T10:56:09;6.00;1.00
3023;DHT22;1521;53.584;9.938;2023-03-12T10:58:40;5.90;1.00
3023;DHT22;1521;53.584;9.938;2023-03-12T11:01:25;5.70;1.00
3023;DHT22;1521;53.584;9.938;2023-03-12T11:03:52;5.70;1.00
3023;DHT22;1521;53.584;9.938;2023-03-12T11:06:32;5.60;1.00
3023;DHT22;1521;53.584;9.938;2023-03-12T11:09:14;5.60;1.00
3023;DHT22;1521;53.584;9.938;2023-03-12T11:11:41;5.60;1.00
3023;DHT22;1521;53.584;9.938;2023-03-12T11:14:28;5.70;1.00
3023;DHT22;1521;53.584;9.938;2023-03-12T11:16:55;5.70;1.00
3023;DHT22;1521;53.584;9.938;2023-03-12T11:19:32;5.60;1.00
3023;DHT22;1521;53.584;9.938;2023-03-12T11:22:06;5.40;1.00
3023;DHT22;1521;53.584;9.938;2023-03-12T11:24:33;5.30;1.00
3023;DHT22;1521;53.584;9.938;2023-03-12T11:27:30;5.30;1.00
3023;DHT22;1521;53.584;9.938;2023-03-12T11:29:59;5.20;1.00
3023;DHT22;1521;53.584;9.938;2023-03-12T11:32:35;5.10;1.00
3023;DHT22;1521;53.584;9.938;2023-03-12T11:35:02;5.00;1.00
3023;DHT22;1521;53.584;9.938;2023-03-12T11:37:45;5.10;1.00
3023;DHT22;1521;53.584;9.938;2023-03-12T11:40:20;5.20;1.00
3023;DHT22;1521;53.584;9.938;2023-03-12T11:45:42;5.30;1.00
3023;DHT22;1521;53.584;9.938;2023-03-12T11:50:56;5.30;1.00
3023;DHT22;1521;53.584;9.938;2023-03-12T11:56:33;5.20;1.00
3023;DHT22;1521;53.584;9.938;2023-03-12T11:59:37;5.20;1.00
3023;DHT22;1521;53.584;9.938;2023-03-12T12:05:37;5.10;1.00
3023;DHT22;1521;53.584;9.938;2023-03-12T12:08:06;5.20;1.00
3023;DHT22;1521;53.584;9.938;2023-03-12T12:13:45;5.40;1.00
3023;DHT22;1521;53.584;9.938;2023-03-12T12:35:34;5.40;1.00
3023;DHT22;1521;53.584;9.938;2023-03-12T12:38:06;5.40;1.00
3023;DHT22;1521;53.584;9.938;2023-03-12T12:40:43;5.40;1.00
3023;DHT22;1521;53.584;9.938;2023-03-12T12:45:45;5.20;1.00
3023;DHT22;1521;53.584;9.938;2023-03-12T12:50:48;4.80;1.00
3023;DHT22;1521;53.584;9.938;2023-03-12T12:53:25;4.80;1.00
3023;DHT22;1521;53.584;9.938;2023-03-12T12:58:31;4.90;1.00
3023;DHT22;1521;53.584;9.938;2023-03-12T13:01:01;5.00;1.00
3023;DHT22;1521;53.584;9.938;2023-03-12T13:03:27;5.00;1.00
3023;DHT22;1521;53.584;9.938;2023-03-12T13:05:57;5.00;1.00
3023;DHT22;1521;53.584;9.938;2023-03-12T13:13:49;4.60;1.00
3023;DHT22;1521;53.584;9.938;2023-03-12T13:21:44;4.50;1.00
3023;DHT22;1521;53.584;9.938;2023-03-12T13:24:25;4.50;1.00
3023;DHT22;1521;53.584;9.938;2023-03-12T13:27:15;4.40;1.00
3023;DHT22;1521;53.584;9.938;2023-03-12T13:29:43;4.60;1.00
3023;DHT22;1521;53.584;9.938;2023-03-12T13:45:41;4.30;1.00
3023;DHT22;1521;53.584;9.938;2023-03-12T13:48:20;4.20;1.00
3023;DHT22;1521;53.584;9.938;2023-03-12T13:50:57;4.10;1.00
3023;DHT22;1521;53.584;9.938;2023-03-12T13:53:24;4.10;1.00
3023;DHT22;1521;53.584;9.938;2023-03-12T13:58:29;4.00;1.00
3023;DHT22;1521;53.584;9.938;2023-03-12T14:03:32;3.80;1.00
3023;DHT22;1521;53.584;9.938;2023-03-12T14:06:08;3.80;1.00
3023;DHT22;1521;53.584;9.938;2023-03-12T14:08:58;3.70;38.90
3023;DHT22;1521;53.584;9.938;2023-03-12T14:16:42;3.60;99.90
3023;DHT22;1521;53.584;9.938;2023-03-12T14:19:15;3.70;99.90
3023;DHT22;1521;53.584;9.938;2023-03-12T14:21:43;3.70;99.90
3023;DHT22;1521;53.584;9.938;2023-03-12T14:24:37;3.80;99.90
3023;DHT22;1521;53.584;9.938;2023-03-12T14:27:05;3.70;99.90
3023;DHT22;1521;53.584;9.938;2023-03-12T14:29:51;3.70;99.90
3023;DHT22;1521;53.584;9.938;2023-03-12T14:32:22;3.60;99.90
3023;DHT22;1521;53.584;9.938;2023-03-12T14:37:59;3.40;1.00
3023;DHT22;1521;53.584;9.938;2023-03-12T14:40:44;3.30;1.00
3023;DHT22;1521;53.584;9.938;2023-03-12T14:43:25;3.40;1.50
3023;DHT22;1521;53.584;9.938;2023-03-12T14:45:56;3.30;98.20
3023;DHT22;1521;53.584;9.938;2023-03-12T14:48:26;3.20;99.90
3023;DHT22;1521;53.584;9.938;2023-03-12T14:50:52;3.20;99.90
3023;DHT22;1521;53.584;9.938;2023-03-12T14:53:26;3.10;1.00
3023;DHT22;1521;53.584;9.938;2023-03-12T14:58:25;3.10;99.90
3023;DHT22;1521;53.584;9.938;2023-03-12T15:01:05;3.10;1.00
3023;DHT22;1521;53.584;9.938;2023-03-12T15:04:11;3.10;1.00
3023;DHT22;1521;53.584;9.938;2023-03-12T15:06:31;3.00;99.90
3023;DHT22;1521;53.584;9.938;2023-03-12T15:08:58;2.90;1.00
3023;DHT22;1521;53.584;9.938;2023-03-12T15:11:27;2.90;99.90
3023;DHT22;1521;53.584;9.938;2023-03-12T15:13:55;2.80;1.00
3023;DHT22;1521;53.584;9.938;2023-03-12T15:16:22;2.70;1.00
3023;DHT22;1521;53.584;9.938;2023-03-12T15:18:48;2.70;99.90
3023;DHT22;1521;53.584;9.938;2023-03-12T15:21:15;2.70;99.90
3023;DHT22;1521;53.584;9.938;2023-03-12T15:23:44;2.70;1.00
3023;DHT22;1521;53.584;9.938;2023-03-12T15:29:14;2.70;1.00
3023;DHT22;1521;53.584;9.938;2023-03-12T15:31:49;2.60;99.90
3023;DHT22;1521;53.584;9.938;2023-03-12T15:34:29;2.60;81.50
3023;DHT22;1521;53.584;9.938;2023-03-12T15:37:00;2.60;1.00
3023;DHT22;1521;53.584;9.938;2023-03-12T15:39:34;2.60;1.00
3023;DHT22;1521;53.584;9.938;2023-03-12T15:42:08;2.50;1.00
3023;DHT22;1521;53.584;9.938;2023-03-12T15:44:46;2.60;99.90
3023;DHT22;1521;53.584;9.938;2023-03-12T15:47:16;2.60;99.90
3023;DHT22;1521;53.584;9.938;2023-03-12T15:49:42;2.60;99.90
3023;DHT22;1521;53.584;9.938;2023-03-12T15:54:59;2.50;1.00
3023;DHT22;1521;53.584;9.938;2023-03-12T15:57:25;2.50;1.00
3023;DHT22;1521;53.584;9.938;2023-03-12T16:02:38;2.50;99.90
3023;DHT22;1521;53.584;9.938;2023-03-12T16:05:04;2.50;99.90
3023;DHT22;1521;53.584;9.938;2023-03-12T16:07:30;2.50;99.90
3023;DHT22;1521;53.584;9.938;2023-03-12T16:09:56;2.50;99.90
3023;DHT22;1521;53.584;9.938;2023-03-12T16:12:22;2.40;99.90
3023;DHT22;1521;53.584;9.938;2023-03-12T16:14:47;2.40;1.00
3023;DHT22;1521;53.584;9.938;2023-03-12T16:17:14;2.40;1.00
3023;DHT22;1521;53.584;9.938;2023-03-12T16:19:43;2.40;1.00
3023;DHT22;1521;53.584;9.938;2023-03-12T16:22:09;2.40;1.00
3023;DHT22;1521;53.584;9.938;2023-03-12T16:24:34;2.40;1.00
3023;DHT22;1521;53.584;9.938;2023-03-12T16:27:01;2.40;1.00
3023;DHT22;1521;53.584;9.938;2023-03-12T16:29:37;2.40;1.00
3023;DHT22;1521;53.584;9.938;2023-03-12T16:32:12;2.50;1.00
3023;DHT22;1521;53.584;9.938;2023-03-12T16:34:39;2.50;1.00
3023;DHT22;1521;53.584;9.938;2023-03-12T16:37:05;2.50;1.00
3023;DHT22;1521;53.584;9.938;2023-03-12T16:39:30;2.50;1.00
3023;DHT22;1521;53.584;9.938;2023-03-12T16:41:58;2.60;1.00
3023;DHT22;1521;53.584;9.938;2023-03-12T16:44:27;2.60;1.00
3023;DHT22;1521;53.584;9.938;2023-03-12T16:46:53;2.60;1.00
3023;DHT22;1521;53.584;9.938;2023-03-12T16:49:19;2.70;1.00
3023;DHT22;1521;53.584;9.938;2023-03-12T16:51:45;2.70;1.00
3023;DHT22;1521;53.584;9.938;2023-03-12T16:54:12;2.70;1.00
3023;DHT22;1521;53.584;9.938;2023-03-12T16:56:41;2.70;1.00
3023;DHT22;1521;53.584;9.938;2023-03-12T16:59:23;2.70;1.00
3023;DHT22;1521;53.584;9.938;2023-03-12T17:01:49;2.70;1.00
3023;DHT22;1521;53.584;9.938;2023-03-12T17:04:15;2.70;1.00
3023;DHT22;1521;53.584;9.938;2023-03-12T17:06:41;2.70;1.00
3023;DHT22;1521;53.584;9.938;2023-03-12T17:09:06;2.80;4.50
3023;DHT22;1521;53.584;9.938;2023-03-12T17:11:33;2.80;8.60
3023;DHT22;1521;53.584;9.938;2023-03-12T17:14:02;2.80;14.20
3023;DHT22;1521;53.584;9.938;2023-03-12T17:16:29;2.80;20.40
3023;DHT22;1521;53.584;9.938;2023-03-12T17:18:55;2.80;23.50
3023;DHT22;1521;53.584;9.938;2023-03-12T17:21:21;2.90;28.90
3023;DHT22;1521;53.584;9.938;2023-03-12T17:23:48;2.90;35.80
3023;DHT22;1521;53.584;9.938;2023-03-12T17:26:17;3.00;44.20
3023;DHT22;1521;53.584;9.938;2023-03-12T17:28:43;3.00;48.40
3023;DHT22;1521;53.584;9.938;2023-03-12T17:31:09;3.00;48.90
3023;DHT22;1521;53.584;9.938;2023-03-12T17:33:35;3.00;57.00
3023;DHT22;1521;53.584;9.938;2023-03-12T17:36:05;3.10;68.90
3023;DHT22;1521;53.584;9.938;2023-03-12T17:38:31;3.20;75.00
3023;DHT22;1521;53.584;9.938;2023-03-12T17:40:58;3.20;73.60
3023;DHT22;1521;53.584;9.938;2023-03-12T17:43:24;3.20;75.80
3023;DHT22;1521;53.584;9.938;2023-03-12T17:45:50;3.20;85.20
3023;DHT22;1521;53.584;9.938;2023-03-12T17:48:16;3.20;93.70
3023;DHT22;1521;53.584;9.938;2023-03-12T17:50:42;3.30;99.90
3023;DHT22;1521;53.584;9.938;2023-03-12T17:53:08;3.30;99.90
3023;DHT22;1521;53.584;9.938;2023-03-12T17:55:35;3.30;99.90
3023;DHT22;1521;53.584;9.938;2023-03-12T17:58:01;3.40;99.90
3023;DHT22;1521;53.584;9.938;2023-03-12T18:00:28;3.50;99.90
3023;DHT22;1521;53.584;9.938;2023-03-12T18:02:53;3.50;99.90
3023;DHT22;1521;53.584;9.938;2023-03-12T18:05:19;3.60;99.90
3023;DHT22;1521;53.584;9.938;2023-03-12T18:07:48;3.60;99.90
3023;DHT22;1521;53.584;9.938;2023-03-12T18:10:15;3.70;99.90
3023;DHT22;1521;53.584;9.938;2023-03-12T18:12:41;3.80;99.90
3023;DHT22;1521;53.584;9.938;2023-03-12T18:15:09;3.80;99.90
3023;DHT22;1521;53.584;9.938;2023-03-12T18:17:38;3.90;99.90
3023;DHT22;1521;53.584;9.938;2023-03-12T18:20:04;4.00;99.90
3023;DHT22;1521;53.584;9.938;2023-03-12T18:22:35;4.00;99.90
3023;DHT22;1521;53.584;9.938;2023-03-12T18:25:00;4.10;99.90
3023;DHT22;1521;53.584;9.938;2023-03-12T18:27:26;4.10;99.90
3023;DHT22;1521;53.584;9.938;2023-03-12T18:29:51;4.10;99.90
3023;DHT22;1521;53.584;9.938;2023-03-12T18:32:17;4.20;99.90
3023;DHT22;1521;53.584;9.938;2023-03-12T18:34:42;4.20;99.90